Time;durP1;ratioP1;P1;durP2;ratioP2;P2;SDS_P1;SDS_P2;PMS_P1;PMS_P2;Temp;Humidity;BMP_temperature;BMP_pressure;BME280_temperature;BME280_humidity;BME280_pressure;Samples;Min_cycle;Max_cycle;Signal;HPM_P1;HPM_P2
2022/04/21 00:00:16;;;;;;;80.72;41.80;;;;;;;4.39;69.04;98115.78;5092638;28;20047;-75
2022/04/21 00:02:41;;;;;;;80.68;41.15;;;;;;;4.34;70.07;98123.91;5092329;28;20062;-77
2022/04/21 00:05:09;;;;;;;79.45;40.95;;;;;;;4.26;70.15;98121.72;5092224;28;20427;-75
2022/04/21 00:07:35;;;;;;;84.32;41.10;;;;;;;4.19;69.81;98118.41;5092792;28;20095;-76
2022/04/21 00:10:01;;;;;;;76.18;41.75;;;;;;;4.13;69.40;98125.69;5092225;28;20028;-76
2022/04/21 00:12:26;;;;;;;88.40;42.22;;;;;;;4.04;69.63;98122.66;5092328;28;20515;-76
2022/04/21 00:14:52;;;;;;;82.03;41.50;;;;;;;3.93;70.05;98123.66;5092223;28;20116;-76
2022/04/21 00:17:17;;;;;;;79.60;40.47;;;;;;;3.83;69.55;98119.81;5092474;28;20035;-75
2022/04/21 00:19:42;;;;;;;72.20;38.10;;;;;;;3.78;69.99;98125.19;5091017;28;20106;-75
2022/04/21 00:24:52;;;;;;;70.55;37.42;;;;;;;3.57;69.54;98121.50;5092122;28;20042;-75
2022/04/21 00:27:17;;;;;;;70.20;37.60;;;;;;;3.47;69.78;98111.38;5092184;28;20389;-75
2022/04/21 00:29:46;;;;;;;69.20;36.70;;;;;;;3.37;70.29;98111.31;5092351;28;20488;-75
2022/04/21 00:32:13;;;;;;;70.10;35.20;;;;;;;3.29;70.10;98115.28;5091951;28;20643;-75
2022/04/21 00:34:38;;;;;;;71.05;37.47;;;;;;;3.20;69.85;98125.78;5090247;28;20497;-76
2022/04/21 00:37:04;;;;;;;72.65;37.80;;;;;;;3.13;69.74;98119.75;5091463;28;20098;-75
2022/04/21 00:39:32;;;;;;;63.10;35.53;;;;;;;3.05;69.73;98114.81;5092001;28;20520;-75
2022/04/21 00:41:58;;;;;;;69.20;36.13;;;;;;;2.97;70.25;98121.47;5091416;28;20058;-74
2022/04/21 00:44:25;;;;;;;69.65;37.80;;;;;;;2.92;69.98;98121.44;5091492;28;20393;-74
2022/04/21 00:46:50;;;;;;;75.00;39.45;;;;;;;2.89;69.95;98125.47;5091576;28;20093;-74
2022/04/21 00:49:18;;;;;;;69.65;36.30;;;;;;;2.85;70.23;98116.22;5091437;28;20028;-74
2022/04/21 00:51:44;;;;;;;63.28;35.88;;;;;;;2.80;69.92;98114.28;5091543;28;20466;-75
2022/04/21 00:54:10;;;;;;;64.93;34.85;;;;;;;2.75;70.22;98119.63;5091605;28;20085;-77
2022/04/21 00:56:36;;;;;;;65.80;35.72;;;;;;;2.67;70.15;98120.09;5091571;28;20050;-74
2022/04/21 00:59:03;;;;;;;64.40;34.78;;;;;;;2.60;69.88;98122.16;5091659;28;20490;-74
2022/04/21 01:04:13;;;;;;;68.65;34.90;;;;;;;2.51;70.20;98121.78;5091433;28;20038;-75
2022/04/21 01:06:39;;;;;;;60.85;33.83;;;;;;;2.45;70.42;98120.88;5091272;28;20016;-74
2022/04/21 01:09:04;;;;;;;67.43;35.85;;;;;;;2.42;70.30;98134.13;5091215;28;20122;-75
2022/04/21 01:11:30;;;;;;;65.97;35.00;;;;;;;2.37;69.79;98134.88;5090813;28;20454;-74
2022/04/21 01:13:56;;;;;;;60.75;33.72;;;;;;;2.32;70.08;98130.19;5091226;28;20074;-74
2022/04/21 01:16:21;;;;;;;69.40;35.05;;;;;;;2.30;69.79;98129.63;5091421;28;20150;-74
2022/04/21 01:18:46;;;;;;;67.70;35.58;;;;;;;2.30;70.85;98131.53;5090834;28;20111;-75
2022/04/21 01:21:12;;;;;;;63.00;34.25;;;;;;;2.32;70.67;98126.69;5090754;28;20032;-75
2022/04/21 01:23:37;;;;;;;64.10;33.60;;;;;;;2.35;70.30;98123.47;5090855;28;20394;-75
2022/04/21 01:26:03;;;;;;;68.28;34.33;;;;;;;2.36;70.32;98127.81;5091221;28;20020;-74
2022/04/21 01:28:30;;;;;;;58.50;31.92;;;;;;;2.36;70.34;98128.63;5091131;28;20031;-74
2022/04/21 01:30:56;;;;;;;64.82;32.38;;;;;;;2.36;70.78;98122.41;5091078;28;20078;-74
2022/04/21 01:33:22;;;;;;;57.90;31.92;;;;;;;2.36;70.27;98117.81;5090915;28;20062;-74
2022/04/21 01:35:47;;;;;;;61.78;34.45;;;;;;;2.40;70.56;98126.25;5091078;28;20379;-74
2022/04/21 01:41:11;;;;;;;61.63;32.88;;;;;;;2.50;71.12;98118.25;5090736;28;20051;-74
2022/04/21 01:43:38;;;;;;;62.33;33.85;;;;;;;2.57;71.32;98111.81;5088041;28;20500;-74
2022/04/21 01:46:05;;;;;;;62.08;32.78;;;;;;;2.66;70.98;98118.44;5086576;28;20490;-73
2022/04/21 01:48:31;;;;;;;65.55;34.55;;;;;;;2.72;71.21;98113.88;5088790;28;20036;-73
2022/04/21 01:50:57;;;;;;;61.85;34.78;;;;;;;2.74;71.31;98112.59;5088126;28;20038;-74
2022/04/21 01:53:22;;;;;;;65.03;35.67;;;;;;;2.79;70.81;98107.22;5086555;28;20032;-74
2022/04/21 01:55:48;;;;;;;61.22;32.88;;;;;;;2.82;70.55;98100.47;5089648;28;20099;-74
2022/04/21 01:58:13;;;;;;;61.42;33.60;;;;;;;2.84;71.37;98111.88;5089680;28;20146;-75
2022/04/21 02:00:40;;;;;;;65.38;34.90;;;;;;;2.88;70.90;98117.59;5087845;28;20027;-73
2022/04/21 02:03:06;;;;;;;72.53;36.03;;;;;;;2.93;70.82;98109.53;5086351;28;20035;-74
2022/04/21 02:05:31;;;;;;;67.85;34.95;;;;;;;2.94;70.67;98109.28;5090671;28;20020;-74
2022/04/21 02:07:56;;;;;;;70.43;38.92;;;;;;;2.95;71.02;98110.91;5090515;28;20024;-74
2022/04/21 02:10:22;;;;;;;66.18;35.08;;;;;;;2.96;71.38;98107.13;5092297;28;20393;-74
2022/04/21 02:12:48;;;;;;;69.70;36.95;;;;;;;2.95;71.30;98105.50;5090413;28;20024;-74
2022/04/21 02:15:14;;;;;;;78.80;39.35;;;;;;;2.95;70.72;98105.50;5090230;28;20032;-73
2022/04/21 02:17:40;;;;;;;75.78;39.50;;;;;;;2.95;71.28;98104.66;5090622;28;20397;-74
2022/04/21 02:20:08;;;;;;;76.68;39.42;;;;;;;2.97;71.34;98107.94;5090641;28;20017;-74
2022/04/21 02:22:36;;;;;;;73.05;38.30;;;;;;;3.01;71.83;98100.94;5088508;28;20206;-74
2022/04/21 02:25:03;;;;;;;75.93;39.60;;;;;;;3.04;71.68;98102.34;5084150;28;20050;-73
2022/04/21 02:27:29;;;;;;;70.00;37.08;;;;;;;3.05;71.12;98098.56;5087703;28;20028;-74
2022/04/21 02:29:55;;;;;;;65.22;35.83;;;;;;;3.03;71.50;98093.38;5085885;28;20058;-74
2022/04/21 02:32:21;;;;;;;64.72;37.28;;;;;;;3.02;70.98;98097.16;5084120;28;20482;-74
2022/04/21 02:34:47;;;;;;;63.08;34.35;;;;;;;3.00;70.82;98098.50;5089600;28;20032;-75
2022/04/21 02:37:13;;;;;;;55.95;32.10;;;;;;;2.96;71.27;98095.47;5090505;28;20024;-74
2022/04/21 02:39:38;;;;;;;55.92;31.42;;;;;;;2.92;71.20;98097.88;5086429;28;20046;-74
2022/04/21 02:42:04;;;;;;;53.50;30.98;;;;;;;2.87;71.85;98100.53;5086458;28;20043;-74
2022/04/21 02:44:30;;;;;;;58.10;33.67;;;;;;;2.81;71.11;98098.84;5086728;28;20035;-74
2022/04/21 02:46:57;;;;;;;59.85;33.53;;;;;;;2.80;72.06;98103.44;5089314;28;20024;-74
2022/04/21 02:49:23;;;;;;;53.25;29.00;;;;;;;2.83;71.54;98111.06;5087337;28;20067;-74
2022/04/21 02:51:48;;;;;;;51.97;28.17;;;;;;;2.83;71.99;98102.09;5088731;28;20067;-74
2022/04/21 02:59:42;;;;;;;52.35;29.77;;;;;;;2.85;71.50;98094.53;5091110;28;20125;-74
2022/04/21 03:02:08;;;;;;;53.97;29.95;;;;;;;2.85;71.38;98105.38;5091820;28;20067;-74
2022/04/21 03:04:33;;;;;;;60.13;33.15;;;;;;;2.84;72.07;98101.03;5092287;28;20028;-74
2022/04/21 03:06:59;;;;;;;59.00;33.35;;;;;;;2.86;71.86;98100.78;5092883;28;20016;-73
2022/04/21 03:09:24;;;;;;;58.38;31.98;;;;;;;2.90;72.32;98105.44;5092524;28;20058;-74
2022/04/21 03:11:49;;;;;;;57.17;34.13;;;;;;;2.90;71.95;98099.19;5093386;28;20029;-74
2022/04/21 03:14:17;;;;;;;60.20;33.92;;;;;;;2.91;72.18;98100.81;5092846;28;20024;-73
2022/04/21 03:16:43;;;;;;;60.40;32.53;;;;;;;2.87;72.17;98087.00;5093561;28;20509;-73
2022/04/21 03:19:08;;;;;;;69.63;37.35;;;;;;;2.79;71.62;98082.03;5092198;28;20024;-74
2022/04/21 03:24:20;;;;;;;79.47;40.70;;;;;;;2.65;71.71;98085.13;5089986;28;20062;-74
2022/04/21 03:26:50;;;;;;;75.47;42.03;;;;;;;2.61;71.92;98081.31;5091066;28;20020;-73
2022/04/21 03:29:16;;;;;;;75.03;41.00;;;;;;;2.55;72.38;98090.44;5091944;28;20049;-74
2022/04/21 03:31:43;;;;;;;77.70;41.95;;;;;;;2.47;72.15;98093.59;5091797;28;20031;-74
2022/04/21 03:34:13;;;;;;;74.22;41.95;;;;;;;2.40;72.19;98091.06;5093078;28;20056;-74
2022/04/21 03:36:41;;;;;;;78.13;40.83;;;;;;;2.35;72.53;98088.31;5092913;28;20111;-74
2022/04/21 03:39:06;;;;;;;83.28;45.17;;;;;;;2.29;72.78;98081.97;5089364;28;20024;-73
2022/04/21 03:41:33;;;;;;;81.13;41.30;;;;;;;2.25;72.09;98082.75;5092772;28;20110;-73
2022/04/21 03:43:58;;;;;;;82.45;44.63;;;;;;;2.17;72.32;98078.59;5089449;28;20032;-74
2022/04/21 03:46:23;;;;;;;88.32;45.92;;;;;;;2.13;72.79;98074.75;5088290;28;20055;-74
2022/04/21 03:48:49;;;;;;;84.68;45.15;;;;;;;2.10;72.95;98083.38;5091050;28;20493;-73
2022/04/21 03:51:15;;;;;;;87.70;44.70;;;;;;;2.05;73.07;98087.63;5092783;28;20046;-73
2022/04/21 03:53:40;;;;;;;79.35;41.97;;;;;;;2.04;73.12;98102.25;5092972;28;20551;-73
2022/04/21 03:56:05;;;;;;;84.03;43.88;;;;;;;2.07;73.17;98100.91;5087643;28;20021;-73
2022/04/21 03:58:31;;;;;;;79.38;40.95;;;;;;;2.06;72.63;98100.09;5089303;28;20024;-74
2022/04/21 04:00:56;;;;;;;84.32;44.30;;;;;;;2.04;72.60;98090.59;5091042;28;20111;-74
2022/04/21 04:03:22;;;;;;;83.68;43.28;;;;;;;2.01;73.07;98080.28;5091628;28;20529;-74
2022/04/21 04:05:47;;;;;;;81.38;42.80;;;;;;;1.98;72.56;98084.28;5092646;28;20025;-74
2022/04/21 04:10:56;;;;;;;85.57;42.40;;;;;;;1.95;73.25;98084.78;5089806;28;20069;-74
2022/04/21 04:13:23;;;;;;;81.40;44.10;;;;;;;1.88;73.21;98079.56;5092324;28;20024;-73
2022/04/21 04:15:49;;;;;;;79.32;42.20;;;;;;;1.87;73.78;98080.63;5091753;28;20055;-73
2022/04/21 04:18:23;;;;;;;78.30;42.65;;;;;;;1.86;73.12;98089.81;5092047;28;20024;-73
2022/04/21 04:20:49;;;;;;;85.18;45.33;;;;;;;1.88;73.34;98092.25;5092042;28;20034;-74
2022/04/21 04:23:19;;;;;;;82.97;44.88;;;;;;;1.88;73.45;98095.78;5092140;28;20024;-74
2022/04/21 04:25:45;;;;;;;;;;;;;;;1.90;73.50;98098.25;5092560;28;20024;-74
2022/04/21 04:28:10;;;;;;;82.40;42.13;;;;;;;1.92;73.55;98090.69;5092847;28;19966;-74
2022/04/21 04:30:40;;;;;;;76.63;41.63;;;;;;;1.95;73.87;98098.31;5092355;28;20103;-74
2022/04/21 04:33:07;;;;;;;84.35;42.17;;;;;;;2.00;73.77;98101.09;5091955;28;20016;-74
2022/04/21 04:35:32;;;;;;;78.75;41.60;;;;;;;2.04;73.67;98101.41;5092043;28;20680;-74
2022/04/21 04:37:58;;;;;;;78.55;43.53;;;;;;;2.08;74.15;98113.38;5089249;28;20028;-74
2022/04/21 04:40:25;;;;;;;93.95;46.67;;;;;;;2.19;74.00;98106.22;5086444;28;20036;-74
2022/04/21 04:42:54;;;;;;;77.55;42.67;;;;;;;2.28;73.81;98110.13;5090315;28;20023;-73
2022/04/21 04:48:04;;;;;;;95.75;49.10;;;;;;;2.44;74.34;98115.75;5090018;28;20123;-74
2022/04/21 04:50:29;;;;;;;84.88;47.90;;;;;;;2.53;74.05;98120.44;5086144;28;20385;-74
2022/04/21 04:52:59;;;;;;;84.63;45.20;;;;;;;2.64;74.28;98115.16;5090293;28;20024;-73
2022/04/21 04:55:25;;;;;;;95.35;49.20;;;;;;;2.72;73.98;98116.59;5090016;28;20039;-73
2022/04/21 04:57:52;;;;;;;92.00;48.28;;;;;;;2.76;73.85;98112.31;5090267;28;20600;-73
2022/04/21 05:00:18;;;;;;;89.50;47.33;;;;;;;2.73;73.84;98112.81;5090569;28;20390;-74
2022/04/21 05:02:44;;;;;;;82.88;45.15;;;;;;;2.73;74.20;98112.81;5088211;28;20028;-74
2022/04/21 05:05:11;;;;;;;72.60;42.35;;;;;;;2.74;73.51;98109.03;5090331;28;20051;-74
2022/04/21 05:07:39;;;;;;;77.47;44.20;;;;;;;2.80;74.10;98114.28;5089425;28;20119;-74
2022/04/21 05:10:05;;;;;;;76.45;42.35;;;;;;;2.90;73.84;98116.28;5088641;28;20099;-73
2022/04/21 05:12:30;;;;;;;87.72;47.20;;;;;;;2.96;74.51;98112.56;5090215;28;20035;-74
2022/04/21 05:14:56;;;;;;;76.25;43.53;;;;;;;2.97;74.07;98108.78;5088738;28;20390;-74
2022/04/21 05:17:22;;;;;;;75.60;42.53;;;;;;;2.98;73.90;98107.69;5091431;28;20150;-74
2022/04/21 05:19:47;;;;;;;76.32;42.78;;;;;;;3.01;74.47;98102.84;5091129;28;20028;-74
2022/04/21 05:22:13;;;;;;;69.82;40.55;;;;;;;3.02;74.03;98113.41;5090599;28;20029;-74
2022/04/21 05:24:40;;;;;;;75.55;40.88;;;;;;;3.09;74.43;98105.06;5090800;28;20028;-75
2022/04/21 05:27:06;;;;;;;66.10;37.38;;;;;;;3.21;74.74;98111.16;5091180;28;20051;-74
2022/04/21 05:32:20;;;;;;;62.30;36.47;;;;;;;3.33;74.12;98115.59;5086355;28;20539;-74
2022/04/21 05:34:46;;;;;;;66.53;37.87;;;;;;;3.37;73.79;98105.88;5090628;28;20561;-74
2022/04/21 05:37:13;;;;;;;59.47;34.30;;;;;;;3.41;74.61;98107.81;5089792;28;20031;-74
2022/04/21 05:39:38;;;;;;;54.58;33.45;;;;;;;3.45;73.70;98112.72;5090395;28;20378;-74
2022/04/21 05:42:05;;;;;;;59.45;33.30;;;;;;;3.52;74.28;98105.19;5087342;28;20016;-74
2022/04/21 05:44:31;;;;;;;55.83;34.13;;;;;;;3.64;73.98;98113.97;5088183;28;20035;-74
2022/04/21 05:46:57;;;;;;;66.15;37.80;;;;;;;3.72;74.28;98107.25;5091143;28;20028;-75
2022/04/21 05:49:24;;;;;;;63.35;36.35;;;;;;;3.83;74.21;98108.97;5088973;28;20068;-74
2022/04/21 05:51:51;;;;;;;67.97;37.85;;;;;;;3.94;73.43;98106.31;5088581;28;20042;-74
2022/04/21 05:54:17;;;;;;;62.45;34.00;;;;;;;3.98;73.47;98094.69;5088980;28;20080;-74
2022/04/21 05:56:43;;;;;;;66.38;35.88;;;;;;;3.98;73.12;98105.53;5090559;28;20474;-74
2022/04/21 05:59:08;;;;;;;74.40;39.67;;;;;;;3.96;73.24;98106.84;5090867;28;20032;-74
2022/04/21 06:01:35;;;;;;;77.97;39.58;;;;;;;4.04;73.63;98103.66;5090420;28;20481;-74
2022/04/21 06:04:00;;;;;;;76.05;40.47;;;;;;;4.16;73.79;98119.72;5090364;28;20099;-74
2022/04/21 06:06:26;;;;;;;73.38;40.03;;;;;;;4.30;73.80;98111.94;5090335;28;20099;-73
2022/04/21 06:08:51;;;;;;;71.32;38.55;;;;;;;4.42;73.52;98120.69;5090381;28;20029;-71
2022/04/21 06:11:17;;;;;;;64.40;36.60;;;;;;;4.57;73.07;98114.50;5089719;28;20024;-71
2022/04/21 06:13:42;;;;;;;62.50;36.03;;;;;;;4.69;72.51;98118.91;5089604;28;20107;-76
2022/04/21 06:16:09;;;;;;;64.35;36.53;;;;;;;4.80;73.07;98117.03;5090773;28;20020;-77
2022/04/21 06:18:37;;;;;;;68.18;38.78;;;;;;;4.92;72.38;98128.50;5088429;28;20048;-74
2022/04/21 06:21:04;;;;;;;61.40;35.88;;;;;;;5.14;72.68;98114.69;5089883;28;20165;-75
2022/04/21 06:23:33;;;;;;;63.65;36.60;;;;;;;5.36;72.65;98119.06;5091429;28;20531;-76
2022/04/21 06:25:59;;;;;;;56.22;33.10;;;;;;;5.54;72.72;98116.91;5090500;28;20370;-76
2022/04/21 06:28:25;;;;;;;57.67;33.67;;;;;;;5.65;71.86;98113.09;5090090;28;20028;-75
2022/04/21 06:30:51;;;;;;;58.22;32.47;;;;;;;5.76;72.48;98119.34;5090478;28;20116;-75
2022/04/21 06:33:17;;;;;;;58.22;34.13;;;;;;;5.93;71.92;98119.88;5090115;28;20135;-75
2022/04/21 06:35:44;;;;;;;52.13;30.58;;;;;;;6.08;71.75;98118.25;5094009;28;20020;-75
2022/04/21 06:38:10;;;;;;;58.20;34.28;;;;;;;6.14;70.93;98116.31;5094251;28;20016;-76
2022/04/21 06:40:36;;;;;;;59.08;34.10;;;;;;;6.22;71.42;98116.59;5094365;28;20154;-76
2022/04/21 06:48:01;;;;;;;57.78;35.30;;;;;;;6.33;70.70;98117.38;5092491;28;20115;-77
2022/04/21 06:48:31;;;;;;;53.40;32.47;;;;;;;6.67;70.22;98133.06;5093253;28;20051;-79
2022/04/21 06:50:57;;;;;;;54.65;33.45;;;;;;;6.83;69.94;98128.38;5093984;28;20032;-77
2022/04/21 06:53:22;;;;;;;52.65;31.90;;;;;;;6.97;69.67;98130.50;5093740;28;20479;-74
2022/04/21 06:55:47;;;;;;;41.83;27.63;;;;;;;7.14;69.54;98130.91;5093950;28;20430;-76
2022/04/21 06:58:13;;;;;;;41.03;26.48;;;;;;;7.41;69.79;98129.69;5093525;28;20477;-75
2022/04/21 07:00:38;;;;;;;45.03;27.52;;;;;;;7.71;70.07;98125.09;5092304;28;20035;-75
2022/04/21 07:03:07;;;;;;;44.05;27.17;;;;;;;7.85;68.98;98124.44;5093035;28;20058;-75
2022/04/21 07:05:33;;;;;;;38.17;23.83;;;;;;;8.04;69.00;98121.81;5093682;28;20039;-72
2022/04/21 07:07:58;;;;;;;34.10;22.15;;;;;;;8.26;68.81;98121.31;5093369;28;20036;-75
2022/04/21 07:10:24;;;;;;;38.75;24.17;;;;;;;8.49;68.14;98119.72;5093262;28;20032;-76
2022/04/21 07:12:49;;;;;;;41.33;26.70;;;;;;;8.72;68.42;98130.13;5090321;28;20040;-81
2022/04/21 07:15:15;;;;;;;38.00;23.67;;;;;;;8.73;67.09;98131.75;5090579;28;20027;-75
2022/04/21 07:17:42;;;;;;;33.58;20.63;;;;;;;8.67;66.33;98119.25;5092422;28;20541;-74
2022/04/21 07:20:09;;;;;;;35.20;22.80;;;;;;;8.72;66.18;98119.19;5093124;28;20028;-79
2022/04/21 07:22:35;;;;;;;32.05;20.00;;;;;;;8.82;65.69;98119.03;5092335;28;20050;-73
2022/04/21 07:25:05;;;;;;;30.20;21.60;;;;;;;8.84;65.26;98107.81;5092710;28;20462;-77
2022/04/21 07:27:31;;;;;;;33.47;21.27;;;;;;;8.83;64.66;98117.13;5092790;28;20028;-73
2022/04/21 07:29:56;;;;;;;27.40;19.92;;;;;;;8.82;63.99;98116.31;5093654;28;20484;-78
2022/04/21 07:32:22;;;;;;;29.95;20.52;;;;;;;8.92;64.37;98121.66;5092509;28;20070;-75
2022/04/21 07:34:48;;;;;;;25.70;18.88;;;;;;;9.04;64.32;98118.47;5094862;28;20032;-77
2022/04/21 07:37:13;;;;;;;28.05;20.10;;;;;;;9.19;64.71;98109.25;5093678;28;20115;-74
2022/04/21 07:39:42;;;;;;;25.55;18.13;;;;;;;9.34;63.55;98112.88;5094333;28;20028;-73
2022/04/21 07:42:09;;;;;;;29.20;18.13;;;;;;;9.51;62.74;98115.91;5091207;28;20032;-74
2022/04/21 07:44:35;;;;;;;33.60;23.15;;;;;;;9.53;62.51;98119.16;5089448;28;20024;-73
2022/04/21 07:47:01;;;;;;;39.90;25.98;;;;;;;9.58;62.27;98117.47;5092069;28;20032;-74
2022/04/21 07:49:45;;;;;;;32.13;22.55;;;;;;;9.45;62.08;98119.84;5092634;28;20051;-73
2022/04/21 07:55:24;;;;;;;33.08;22.95;;;;;;;9.77;62.12;98117.41;5093490;28;20111;-76
2022/04/21 07:57:52;;;;;;;36.40;24.35;;;;;;;9.88;61.84;98118.06;5092956;28;20057;-75
2022/04/21 08:00:18;;;;;;;37.13;24.75;;;;;;;9.86;62.09;98120.28;5095213;28;20031;-74
2022/04/21 08:02:46;;;;;;;36.15;24.00;;;;;;;10.04;62.58;98116.66;5093243;28;20032;-73
2022/04/21 08:05:14;;;;;;;31.67;22.10;;;;;;;10.06;61.29;98119.91;5096457;28;20028;-73
2022/04/21 08:07:40;;;;;;;41.58;25.75;;;;;;;9.98;60.86;98121.44;5092054;28;20024;-73
2022/04/21 08:10:07;;;;;;;33.85;23.45;;;;;;;9.93;60.91;98118.78;5092280;28;20148;-71
2022/04/21 08:12:47;;;;;;;34.47;24.45;;;;;;;9.92;60.38;98119.88;5091111;28;20633;-71
2022/04/21 08:15:15;;;;;;;30.75;21.73;;;;;;;9.96;59.85;98129.13;5091879;28;20032;-70
2022/04/21 08:17:40;;;;;;;31.70;21.27;;;;;;;10.02;60.47;98126.31;5093237;28;20462;-70
2022/04/21 08:20:08;;;;;;;32.03;21.27;;;;;;;10.17;58.22;98126.06;5092669;28;20054;-70
2022/04/21 08:22:34;;;;;;;32.72;21.45;;;;;;;10.21;59.66;98128.97;5090605;28;20061;-69
2022/04/21 08:33:11;;;;;;;30.65;21.67;;;;;;;10.57;59.35;98125.59;5090838;28;20051;-73
2022/04/21 08:35:37;;;;;;;34.03;23.25;;;;;;;10.70;58.46;98126.72;5088847;28;20028;-72
2022/04/21 08:38:03;;;;;;;31.92;21.65;;;;;;;10.64;57.50;98128.75;5091082;28;20032;-71
2022/04/21 08:40:30;;;;;;;30.88;20.98;;;;;;;10.65;57.73;98122.16;5090927;28;20024;-73
2022/04/21 08:42:56;;;;;;;31.23;20.70;;;;;;;10.77;58.57;98123.56;5090479;28;20044;-71
2022/04/21 08:45:23;;;;;;;30.55;20.98;;;;;;;10.87;58.34;98118.69;5091210;28;20399;-71
2022/04/21 08:47:49;;;;;;;30.42;21.35;;;;;;;10.96;58.66;98117.97;5089636;28;20114;-74
2022/04/21 08:50:16;;;;;;;30.35;21.60;;;;;;;11.05;58.89;98124.34;5089562;28;20510;-73
2022/04/21 08:52:43;;;;;;;32.60;23.08;;;;;;;11.18;57.37;98122.69;5092379;28;20043;-70
2022/04/21 08:55:10;;;;;;;28.48;19.73;;;;;;;11.15;57.37;98126.06;5090704;28;20031;-72
2022/04/21 08:57:36;;;;;;;27.60;20.20;;;;;;;11.11;56.48;98127.78;5089580;28;20028;-69
2022/04/21 09:00:08;;;;;;;26.40;18.40;;;;;;;11.00;56.58;98125.25;5088729;28;20059;-71
2022/04/21 09:02:42;;;;;;;27.20;18.88;;;;;;;11.09;56.32;98117.09;5087737;28;20037;-73
2022/04/21 09:05:08;;;;;;;25.10;16.95;;;;;;;11.27;56.83;98115.34;5086832;28;20028;-73
2022/04/21 09:07:47;;;;;;;29.45;20.75;;;;;;;11.42;56.01;98111.44;5089668;28;20516;-73
2022/04/21 09:10:14;;;;;;;27.37;19.23;;;;;;;11.38;54.21;98106.88;5088445;28;20487;-72
2022/04/21 09:12:46;;;;;;;36.65;22.73;;;;;;;11.33;55.77;98107.81;5089968;28;20102;-73
2022/04/21 09:15:16;;;;;;;129.90;56.72;;;;;;;11.36;56.64;98112.69;5090142;28;20063;-73
2022/04/21 09:17:45;;;;;;;41.75;24.38;;;;;;;11.39;54.85;98105.75;5091129;28;20782;-73
2022/04/21 09:20:13;;;;;;;26.80;20.17;;;;;;;11.42;55.71;98105.94;5090050;28;20501;-73
2022/04/21 09:22:42;;;;;;;175.85;80.70;;;;;;;11.64;56.07;98104.34;5088436;28;20389;-73
2022/04/21 09:25:09;;;;;;;35.50;22.63;;;;;;;11.81;55.53;98100.09;5090397;28;20034;-73
2022/04/21 09:27:45;;;;;;;34.10;22.55;;;;;;;11.81;55.18;98097.34;5090399;28;20024;-73
2022/04/21 09:30:13;;;;;;;31.15;21.13;;;;;;;11.80;55.34;98103.97;5091323;28;20024;-74
2022/04/21 09:32:59;;;;;;;32.22;22.80;;;;;;;11.82;55.14;98094.28;5088335;28;20371;-74
2022/04/21 09:35:29;;;;;;;25.90;18.70;;;;;;;11.87;55.17;98091.41;5089016;28;20032;-74
2022/04/21 09:37:54;;;;;;;;;;;;;;;11.94;54.62;98092.91;5091555;28;20431;-74
2022/04/21 09:40:23;;;;;;;25.83;17.08;;;;;;;11.85;53.99;98090.91;5089959;28;19912;-74
2022/04/21 09:43:01;;;;;;;25.53;17.87;;;;;;;11.79;53.56;98089.41;5088174;28;20028;-72
2022/04/21 09:48:19;;;;;;;21.30;15.05;;;;;;;11.84;53.97;98089.28;5090537;28;20035;-71
2022/04/21 09:50:49;;;;;;;15.30;10.27;;;;;;;11.86;52.11;98086.22;5091004;28;20032;-71
2022/04/21 09:53:16;;;;;;;15.52;11.23;;;;;;;11.90;51.68;98084.47;5088093;28;20032;-72
2022/04/21 09:55:44;;;;;;;22.88;14.68;;;;;;;12.01;52.40;98085.06;5090871;28;20034;-71
2022/04/21 09:58:10;;;;;;;20.48;15.05;;;;;;;12.10;52.64;98085.09;5090925;28;20028;-71
2022/04/21 10:00:37;;;;;;;21.13;15.23;;;;;;;12.18;51.78;98079.63;5089885;28;20105;-76
2022/04/21 10:03:05;;;;;;;19.48;14.02;;;;;;;12.34;53.50;98077.28;5089511;28;20112;-75
2022/04/21 10:05:32;;;;;;;19.05;14.02;;;;;;;12.50;52.76;98074.09;5090388;28;20047;-75
2022/04/21 10:08:03;;;;;;;18.08;12.70;;;;;;;12.46;50.51;98075.88;5089888;28;20517;-76
2022/04/21 10:10:30;;;;;;;16.23;12.38;;;;;;;12.45;49.82;98074.25;5093681;28;20031;-76
2022/04/21 10:12:56;;;;;;;19.48;13.32;;;;;;;12.32;49.60;98075.97;5089806;28;20508;-75
2022/04/21 10:15:23;;;;;;;14.52;11.32;;;;;;;12.17;49.71;98077.22;5091835;28;20039;-74
2022/04/21 10:17:49;;;;;;;19.13;13.52;;;;;;;12.06;49.58;98079.41;5090447;28;20065;-73
2022/04/21 10:20:15;;;;;;;19.33;13.70;;;;;;;12.14;49.73;98070.38;5092828;28;20028;-73
2022/04/21 10:22:41;;;;;;;17.48;13.68;;;;;;;12.20;49.88;98069.13;5088839;28;20118;-71
2022/04/21 10:25:07;;;;;;;19.00;13.48;;;;;;;12.29;49.85;98071.91;5090271;28;20055;-71
2022/04/21 10:27:44;;;;;;;17.45;12.73;;;;;;;12.46;50.62;98073.13;5090520;28;20474;-72
2022/04/21 10:30:19;;;;;;;19.58;13.38;;;;;;;12.70;50.79;98078.22;5090061;28;20031;-74
2022/04/21 10:33:11;;;;;;;19.27;13.80;;;;;;;12.96;50.39;98066.44;5091919;28;20036;-73
2022/04/21 10:35:38;;;;;;;21.23;13.82;;;;;;;13.11;49.81;98070.66;5083004;28;20098;-74
2022/04/21 10:38:13;;;;;;;17.45;12.20;;;;;;;13.05;48.73;98070.00;5089994;28;20024;-74
2022/04/21 10:40:54;;;;;;;15.77;11.18;;;;;;;12.99;49.20;98071.28;5089138;28;20470;-74
2022/04/21 10:43:19;;;;;;;25.65;16.88;;;;;;;13.04;49.42;98067.59;5090166;28;20522;-74
2022/04/21 10:46:03;;;;;;;18.35;12.88;;;;;;;13.16;49.41;98073.25;5088773;28;20173;-74
2022/04/21 10:48:42;;;;;;;24.17;16.75;;;;;;;13.14;47.90;98077.47;5089194;28;20024;-73
2022/04/21 10:51:08;;;;;;;25.53;18.00;;;;;;;13.12;48.96;98068.72;5090262;28;20501;-73
2022/04/21 10:59:50;;;;;;;23.40;17.42;;;;;;;13.27;46.49;98072.94;5087286;28;20508;-74
2022/04/21 11:02:16;;;;;;;30.15;19.30;;;;;;;13.30;46.92;98066.78;5088815;28;20055;-72
2022/04/21 11:04:42;;;;;;;23.77;17.55;;;;;;;13.25;46.10;98074.06;5089882;28;20489;-76
2022/04/21 11:07:11;;;;;;;23.20;17.45;;;;;;;13.12;46.08;98072.28;5086132;28;20020;-71
2022/04/21 11:09:38;;;;;;;31.40;20.02;;;;;;;13.09;46.94;98067.41;5089569;28;20508;-72
2022/04/21 11:12:06;;;;;;;36.80;22.02;;;;;;;13.07;46.85;98065.00;5089538;28;20026;-71
2022/04/21 11:14:34;;;;;;;33.30;20.08;;;;;;;13.12;47.75;98054.97;5071120;28;20055;-72
2022/04/21 11:17:01;;;;;;;67.03;31.15;;;;;;;13.16;47.67;98051.22;5089428;28;20393;-73
2022/04/21 11:19:29;;;;;;;41.10;22.88;;;;;;;13.32;48.24;98057.06;5095057;28;20036;-75
2022/04/21 11:21:58;;;;;;;99.70;40.20;;;;;;;13.55;48.24;98051.41;5093083;28;20036;-71
2022/04/21 11:24:25;;;;;;;28.98;18.05;;;;;;;13.68;47.99;98050.41;5094056;28;20031;-71
2022/04/21 11:26:55;;;;;;;44.20;22.30;;;;;;;13.76;47.59;98053.47;5093096;28;20426;-74
2022/04/21 11:29:22;;;;;;;44.47;24.70;;;;;;;13.86;47.74;98047.63;5093051;28;20380;-72
2022/04/21 11:31:48;;;;;;;24.38;17.00;;;;;;;13.80;46.67;98043.41;5096414;28;20020;-76
2022/04/21 11:34:22;;;;;;;27.55;17.38;;;;;;;13.87;46.42;98053.94;5094620;28;20032;-76
2022/04/21 11:36:47;;;;;;;18.27;12.95;;;;;;;13.89;45.80;98049.72;5092818;28;20551;-76
2022/04/21 11:39:14;;;;;;;17.33;13.05;;;;;;;13.89;45.93;98048.91;5093483;28;20024;-76
2022/04/21 11:41:44;;;;;;;29.73;17.58;;;;;;;13.93;44.99;98044.34;5092838;28;20035;-76
2022/04/21 11:44:10;;;;;;;21.27;13.85;;;;;;;14.06;46.24;98042.56;5093769;28;20059;-76
2022/04/21 11:46:40;;;;;;;24.20;14.10;;;;;;;14.12;45.75;98042.03;5092995;28;20393;-76
2022/04/21 11:49:08;;;;;;;22.98;12.80;;;;;;;14.05;43.83;98044.50;5091481;28;20451;-76
2022/04/21 11:51:34;;;;;;;16.85;11.38;;;;;;;14.04;43.13;98048.38;5092069;28;20408;-75
2022/04/21 11:54:07;;;;;;;28.58;15.82;;;;;;;14.09;44.44;98044.63;5091703;28;20065;-75
2022/04/21 11:56:32;;;;;;;33.35;18.45;;;;;;;14.13;43.46;98051.09;5093276;28;20119;-76
2022/04/21 11:59:07;;;;;;;23.40;15.18;;;;;;;14.09;43.78;98047.38;5092398;28;20417;-75
2022/04/21 12:07:04;;;;;;;17.90;12.55;;;;;;;13.99;43.66;98032.84;5092473;28;20440;-75
2022/04/21 12:09:35;;;;;;;20.73;14.30;;;;;;;13.94;44.49;98034.94;5092160;28;20024;-75
2022/04/21 12:12:03;;;;;;;21.05;14.20;;;;;;;13.86;44.63;98031.09;5091808;28;20367;-75
2022/04/21 12:14:30;;;;;;;30.45;20.98;;;;;;;13.74;44.72;98020.75;5091985;28;20107;-75
2022/04/21 12:16:58;;;;;;;25.27;17.02;;;;;;;13.66;45.06;98027.06;5092119;28;20028;-75